sensor_id;sensor_type;location;lat;lon;timestamp;P1;durP1;ratioP1;P2;durP2;ratioP2
75429;SDS011;64127;51.488;5.462;2023-03-08T00:00:13;13.97;;;12.53;;
75429;SDS011;64127;51.488;5.462;2023-03-08T00:02:48;13.87;;;12.47;;
75429;SDS011;64127;51.488;5.462;2023-03-08T00:05:20;14.27;;;12.57;;
75429;SDS011;64127;51.488;5.462;2023-03-08T00:07:53;13.67;;;12.17;;
75429;SDS011;64127;51.488;5.462;2023-03-08T00:10:25;14.63;;;13.20;;
75429;SDS011;64127;51.488;5.462;2023-03-08T00:12:57;13.97;;;12.53;;
75429;SDS011;64127;51.488;5.462;2023-03-08T00:15:29;15.07;;;12.60;;
75429;SDS011;64127;51.488;5.462;2023-03-08T00:18:01;15.63;;;12.50;;
75429;SDS011;64127;51.488;5.462;2023-03-08T00:20:34;14.63;;;13.13;;
75429;SDS011;64127;51.488;5.462;2023-03-08T00:23:07;14.30;;;12.77;;
75429;SDS011;64127;51.488;5.462;2023-03-08T00:25:40;15.47;;;13.83;;
75429;SDS011;64127;51.488;5.462;2023-03-08T00:28:12;15.73;;;14.23;;
75429;SDS011;64127;51.488;5.462;2023-03-08T00:30:44;16.43;;;14.73;;
75429;SDS011;64127;51.488;5.462;2023-03-08T00:33:16;16.40;;;14.70;;
75429;SDS011;64127;51.488;5.462;2023-03-08T00:35:54;15.43;;;13.83;;
75429;SDS011;64127;51.488;5.462;2023-03-08T00:38:33;15.77;;;14.17;;
75429;SDS011;64127;51.488;5.462;2023-03-08T00:41:06;16.40;;;14.20;;
75429;SDS011;64127;51.488;5.462;2023-03-08T00:43:39;16.83;;;14.47;;
75429;SDS011;64127;51.488;5.462;2023-03-08T00:46:12;16.77;;;15.00;;
75429;SDS011;64127;51.488;5.462;2023-03-08T00:48:45;16.27;;;14.53;;
75429;SDS011;64127;51.488;5.462;2023-03-08T00:51:18;17.77;;;15.97;;
75429;SDS011;64127;51.488;5.462;2023-03-08T00:53:51;19.77;;;16.13;;
75429;SDS011;64127;51.488;5.462;2023-03-08T00:56:23;18.13;;;16.27;;
75429;SDS011;64127;51.488;5.462;2023-03-08T00:58:56;17.77;;;15.87;;
75429;SDS011;64127;51.488;5.462;2023-03-08T01:01:28;19.00;;;16.87;;
75429;SDS011;64127;51.488;5.462;2023-03-08T01:04:00;20.23;;;17.87;;
75429;SDS011;64127;51.488;5.462;2023-03-08T01:06:33;19.43;;;16.90;;
75429;SDS011;64127;51.488;5.462;2023-03-08T01:09:05;23.93;;;20.30;;
75429;SDS011;64127;51.488;5.462;2023-03-08T01:11:38;24.43;;;19.57;;
75429;SDS011;64127;51.488;5.462;2023-03-08T01:14:10;23.60;;;20.10;;
75429;SDS011;64127;51.488;5.462;2023-03-08T01:16:42;23.90;;;19.70;;
75429;SDS011;64127;51.488;5.462;2023-03-08T01:19:14;25.80;;;21.17;;
75429;SDS011;64127;51.488;5.462;2023-03-08T01:21:46;24.70;;;20.33;;
75429;SDS011;64127;51.488;5.462;2023-03-08T01:24:18;25.03;;;20.30;;
75429;SDS011;64127;51.488;5.462;2023-03-08T01:26:51;24.57;;;21.17;;
75429;SDS011;64127;51.488;5.462;2023-03-08T01:29:26;23.00;;;20.40;;
75429;SDS011;64127;51.488;5.462;2023-03-08T01:31:59;25.53;;;20.83;;
75429;SDS011;64127;51.488;5.462;2023-03-08T01:34:31;25.67;;;19.73;;
75429;SDS011;64127;51.488;5.462;2023-03-08T01:37:03;24.57;;;21.03;;
75429;SDS011;64127;51.488;5.462;2023-03-08T01:39:36;24.60;;;21.17;;
75429;SDS011;64127;51.488;5.462;2023-03-08T01:42:08;25.70;;;20.93;;
75429;SDS011;64127;51.488;5.462;2023-03-08T01:47:27;25.77;;;21.27;;
75429;SDS011;64127;51.488;5.462;2023-03-08T01:50:07;24.87;;;20.80;;
75429;SDS011;64127;51.488;5.462;2023-03-08T01:52:52;24.27;;;20.63;;
75429;SDS011;64127;51.488;5.462;2023-03-08T01:55:27;23.90;;;20.67;;
75429;SDS011;64127;51.488;5.462;2023-03-08T01:57:59;23.67;;;20.37;;
75429;SDS011;64127;51.488;5.462;2023-03-08T02:00:31;24.73;;;20.87;;
75429;SDS011;64127;51.488;5.462;2023-03-08T02:03:04;23.50;;;20.20;;
75429;SDS011;64127;51.488;5.462;2023-03-08T02:05:41;22.67;;;20.30;;
75429;SDS011;64127;51.488;5.462;2023-03-08T02:08:14;24.33;;;20.83;;
75429;SDS011;64127;51.488;5.462;2023-03-08T02:10:46;22.67;;;20.23;;
75429;SDS011;64127;51.488;5.462;2023-03-08T02:13:20;25.07;;;21.40;;
75429;SDS011;64127;51.488;5.462;2023-03-08T02:15:52;24.07;;;20.30;;
75429;SDS011;64127;51.488;5.462;2023-03-08T02:18:27;24.47;;;21.10;;
75429;SDS011;64127;51.488;5.462;2023-03-08T02:20:59;24.10;;;21.10;;
75429;SDS011;64127;51.488;5.462;2023-03-08T02:23:32;24.20;;;21.30;;
75429;SDS011;64127;51.488;5.462;2023-03-08T02:26:04;26.20;;;21.30;;
75429;SDS011;64127;51.488;5.462;2023-03-08T02:28:36;23.77;;;21.03;;
75429;SDS011;64127;51.488;5.462;2023-03-08T02:31:09;23.27;;;20.77;;
75429;SDS011;64127;51.488;5.462;2023-03-08T02:33:42;23.87;;;20.57;;
75429;SDS011;64127;51.488;5.462;2023-03-08T02:36:14;23.13;;;20.63;;
75429;SDS011;64127;51.488;5.462;2023-03-08T02:38:46;24.07;;;20.63;;
75429;SDS011;64127;51.488;5.462;2023-03-08T02:41:18;22.20;;;19.80;;
75429;SDS011;64127;51.488;5.462;2023-03-08T02:43:50;22.57;;;20.17;;
75429;SDS011;64127;51.488;5.462;2023-03-08T02:46:22;24.27;;;20.67;;
75429;SDS011;64127;51.488;5.462;2023-03-08T02:48:54;22.50;;;19.93;;
75429;SDS011;64127;51.488;5.462;2023-03-08T02:51:26;22.40;;;20.00;;
75429;SDS011;64127;51.488;5.462;2023-03-08T02:53:58;22.80;;;20.23;;
75429;SDS011;64127;51.488;5.462;2023-03-08T02:56:30;23.63;;;21.13;;
75429;SDS011;64127;51.488;5.462;2023-03-08T02:59:03;25.47;;;22.13;;
75429;SDS011;64127;51.488;5.462;2023-03-08T03:01:36;26.87;;;23.20;;
75429;SDS011;64127;51.488;5.462;2023-03-08T03:04:08;25.27;;;21.93;;
75429;SDS011;64127;51.488;5.462;2023-03-08T03:06:40;26.03;;;22.77;;
75429;SDS011;64127;51.488;5.462;2023-03-08T03:09:12;27.50;;;23.33;;
75429;SDS011;64127;51.488;5.462;2023-03-08T03:11:44;25.33;;;22.63;;
75429;SDS011;64127;51.488;5.462;2023-03-08T03:14:16;28.73;;;23.33;;
75429;SDS011;64127;51.488;5.462;2023-03-08T03:16:48;27.27;;;23.73;;
75429;SDS011;64127;51.488;5.462;2023-03-08T03:19:20;26.80;;;23.47;;
75429;SDS011;64127;51.488;5.462;2023-03-08T03:21:52;25.93;;;22.80;;
75429;SDS011;64127;51.488;5.462;2023-03-08T03:24:24;27.93;;;23.20;;
75429;SDS011;64127;51.488;5.462;2023-03-08T03:26:56;24.50;;;21.90;;
75429;SDS011;64127;51.488;5.462;2023-03-08T03:29:28;24.53;;;21.87;;
75429;SDS011;64127;51.488;5.462;2023-03-08T03:31:59;24.50;;;21.90;;
75429;SDS011;64127;51.488;5.462;2023-03-08T03:34:31;22.97;;;20.30;;
75429;SDS011;64127;51.488;5.462;2023-03-08T03:37:04;23.30;;;20.83;;
75429;SDS011;64127;51.488;5.462;2023-03-08T03:39:36;24.23;;;21.50;;
75429;SDS011;64127;51.488;5.462;2023-03-08T03:42:09;23.73;;;21.17;;
75429;SDS011;64127;51.488;5.462;2023-03-08T03:44:41;24.23;;;20.70;;
75429;SDS011;64127;51.488;5.462;2023-03-08T03:47:13;23.73;;;19.87;;
75429;SDS011;64127;51.488;5.462;2023-03-08T03:49:46;22.07;;;19.53;;
75429;SDS011;64127;51.488;5.462;2023-03-08T03:52:18;22.03;;;19.73;;
75429;SDS011;64127;51.488;5.462;2023-03-08T03:54:50;20.50;;;18.30;;
75429;SDS011;64127;51.488;5.462;2023-03-08T03:57:22;20.33;;;18.13;;
75429;SDS011;64127;51.488;5.462;2023-03-08T03:59:54;19.13;;;17.10;;
75429;SDS011;64127;51.488;5.462;2023-03-08T04:02:27;20.10;;;17.90;;
75429;SDS011;64127;51.488;5.462;2023-03-08T04:04:59;19.80;;;17.70;;
75429;SDS011;64127;51.488;5.462;2023-03-08T04:07:31;18.73;;;16.73;;
75429;SDS011;64127;51.488;5.462;2023-03-08T04:10:04;20.07;;;17.97;;
75429;SDS011;64127;51.488;5.462;2023-03-08T04:12:36;19.03;;;16.80;;
75429;SDS011;64127;51.488;5.462;2023-03-08T04:15:08;18.47;;;16.57;;
75429;SDS011;64127;51.488;5.462;2023-03-08T04:17:41;17.53;;;15.70;;
75429;SDS011;64127;51.488;5.462;2023-03-08T04:20:13;19.43;;;17.33;;
75429;SDS011;64127;51.488;5.462;2023-03-08T04:22:45;17.93;;;16.03;;
75429;SDS011;64127;51.488;5.462;2023-03-08T04:25:17;17.03;;;15.27;;
75429;SDS011;64127;51.488;5.462;2023-03-08T04:27:49;17.23;;;15.43;;
75429;SDS011;64127;51.488;5.462;2023-03-08T04:30:21;16.70;;;14.93;;
75429;SDS011;64127;51.488;5.462;2023-03-08T04:32:53;17.27;;;15.50;;
75429;SDS011;64127;51.488;5.462;2023-03-08T04:35:25;16.67;;;14.97;;
75429;SDS011;64127;51.488;5.462;2023-03-08T04:37:57;15.77;;;13.40;;
75429;SDS011;64127;51.488;5.462;2023-03-08T04:40:29;16.63;;;14.87;;
75429;SDS011;64127;51.488;5.462;2023-03-08T04:43:01;16.00;;;14.37;;
75429;SDS011;64127;51.488;5.462;2023-03-08T04:45:33;16.70;;;14.93;;
75429;SDS011;64127;51.488;5.462;2023-03-08T04:48:05;16.80;;;15.10;;
75429;SDS011;64127;51.488;5.462;2023-03-08T04:50:37;17.67;;;15.77;;
75429;SDS011;64127;51.488;5.462;2023-03-08T04:53:09;16.47;;;14.77;;
75429;SDS011;64127;51.488;5.462;2023-03-08T04:55:41;16.23;;;14.53;;
75429;SDS011;64127;51.488;5.462;2023-03-08T04:58:13;17.80;;;14.83;;
75429;SDS011;64127;51.488;5.462;2023-03-08T05:00:46;15.60;;;14.00;;
75429;SDS011;64127;51.488;5.462;2023-03-08T05:03:18;15.17;;;13.57;;
75429;SDS011;64127;51.488;5.462;2023-03-08T05:05:51;15.40;;;13.87;;
75429;SDS011;64127;51.488;5.462;2023-03-08T05:08:26;15.47;;;13.87;;
75429;SDS011;64127;51.488;5.462;2023-03-08T05:10:58;16.17;;;13.77;;
75429;SDS011;64127;51.488;5.462;2023-03-08T05:13:32;15.67;;;14.03;;
75429;SDS011;64127;51.488;5.462;2023-03-08T05:16:08;15.70;;;14.03;;
75429;SDS011;64127;51.488;5.462;2023-03-08T05:18:40;16.23;;;14.50;;
75429;SDS011;64127;51.488;5.462;2023-03-08T05:21:13;15.97;;;14.20;;
75429;SDS011;64127;51.488;5.462;2023-03-08T05:23:48;14.63;;;13.13;;
75429;SDS011;64127;51.488;5.462;2023-03-08T05:26:20;15.33;;;13.40;;
75429;SDS011;64127;51.488;5.462;2023-03-08T05:28:52;15.37;;;13.77;;
75429;SDS011;64127;51.488;5.462;2023-03-08T05:31:24;14.80;;;13.20;;
75429;SDS011;64127;51.488;5.462;2023-03-08T05:33:56;13.90;;;12.50;;
75429;SDS011;64127;51.488;5.462;2023-03-08T05:36:29;12.33;;;11.13;;
75429;SDS011;64127;51.488;5.462;2023-03-08T05:39:00;13.03;;;11.57;;
75429;SDS011;64127;51.488;5.462;2023-03-08T05:41:33;13.47;;;12.00;;
75429;SDS011;64127;51.488;5.462;2023-03-08T05:44:05;11.77;;;10.57;;
75429;SDS011;64127;51.488;5.462;2023-03-08T05:46:37;11.70;;;10.57;;
75429;SDS011;64127;51.488;5.462;2023-03-08T05:49:09;14.60;;;10.63;;
75429;SDS011;64127;51.488;5.462;2023-03-08T05:51:41;11.80;;;10.20;;
75429;SDS011;64127;51.488;5.462;2023-03-08T05:54:13;10.67;;;9.57;;
75429;SDS011;64127;51.488;5.462;2023-03-08T05:56:45;10.23;;;9.17;;
75429;SDS011;64127;51.488;5.462;2023-03-08T05:59:17;9.33;;;8.37;;
75429;SDS011;64127;51.488;5.462;2023-03-08T06:01:49;10.13;;;9.07;;
75429;SDS011;64127;51.488;5.462;2023-03-08T06:04:21;10.87;;;9.00;;
75429;SDS011;64127;51.488;5.462;2023-03-08T06:06:53;9.93;;;8.93;;
75429;SDS011;64127;51.488;5.462;2023-03-08T06:09:25;9.43;;;8.50;;
75429;SDS011;64127;51.488;5.462;2023-03-08T06:11:57;9.50;;;8.37;;
75429;SDS011;64127;51.488;5.462;2023-03-08T06:14:29;11.63;;;8.97;;
75429;SDS011;64127;51.488;5.462;2023-03-08T06:17:01;8.50;;;7.53;;
75429;SDS011;64127;51.488;5.462;2023-03-08T06:19:33;9.60;;;8.60;;
75429;SDS011;64127;51.488;5.462;2023-03-08T06:22:05;9.30;;;8.37;;
75429;SDS011;64127;51.488;5.462;2023-03-08T06:24:37;8.20;;;7.37;;
75429;SDS011;64127;51.488;5.462;2023-03-08T06:27:09;7.10;;;6.40;;
75429;SDS011;64127;51.488;5.462;2023-03-08T06:29:41;9.15;;;8.30;;
75429;SDS011;64127;51.488;5.462;2023-03-08T06:32:13;7.47;;;6.77;;
75429;SDS011;64127;51.488;5.462;2023-03-08T06:34:46;6.07;;;5.47;;
75429;SDS011;64127;51.488;5.462;2023-03-08T06:37:18;5.83;;;4.80;;
75429;SDS011;64127;51.488;5.462;2023-03-08T06:39:50;5.00;;;4.50;;
75429;SDS011;64127;51.488;5.462;2023-03-08T06:42:21;5.30;;;4.80;;
75429;SDS011;64127;51.488;5.462;2023-03-08T06:45:10;5.00;;;4.50;;
75429;SDS011;64127;51.488;5.462;2023-03-08T06:47:42;5.00;;;4.50;;
75429;SDS011;64127;51.488;5.462;2023-03-08T06:50:14;5.20;;;4.57;;
75429;SDS011;64127;51.488;5.462;2023-03-08T06:52:47;4.73;;;4.33;;
75429;SDS011;64127;51.488;5.462;2023-03-08T06:55:19;5.10;;;4.23;;
75429;SDS011;64127;51.488;5.462;2023-03-08T06:57:51;4.50;;;4.10;;
75429;SDS011;64127;51.488;5.462;2023-03-08T07:00:23;4.73;;;4.20;;
75429;SDS011;64127;51.488;5.462;2023-03-08T07:02:55;4.70;;;3.90;;
75429;SDS011;64127;51.488;5.462;2023-03-08T07:05:27;3.97;;;3.67;;
75429;SDS011;64127;51.488;5.462;2023-03-08T07:07:59;4.40;;;3.90;;
75429;SDS011;64127;51.488;5.462;2023-03-08T07:10:31;3.93;;;3.37;;
75429;SDS011;64127;51.488;5.462;2023-03-08T07:13:04;5.00;;;3.20;;
75429;SDS011;64127;51.488;5.462;2023-03-08T07:15:38;3.60;;;3.30;;
75429;SDS011;64127;51.488;5.462;2023-03-08T07:18:11;3.37;;;2.63;;
75429;SDS011;64127;51.488;5.462;2023-03-08T07:20:55;2.90;;;2.60;;
75429;SDS011;64127;51.488;5.462;2023-03-08T07:23:27;2.93;;;2.63;;
75429;SDS011;64127;51.488;5.462;2023-03-08T07:26:02;3.10;;;2.80;;
75429;SDS011;64127;51.488;5.462;2023-03-08T07:28:39;4.03;;;3.20;;
75429;SDS011;64127;51.488;5.462;2023-03-08T07:31:11;3.93;;;3.20;;
75429;SDS011;64127;51.488;5.462;2023-03-08T07:33:43;3.90;;;3.47;;
75429;SDS011;64127;51.488;5.462;2023-03-08T07:36:15;4.70;;;3.90;;
75429;SDS011;64127;51.488;5.462;2023-03-08T07:38:47;5.33;;;3.87;;
75429;SDS011;64127;51.488;5.462;2023-03-08T07:41:19;4.77;;;4.30;;
75429;SDS011;64127;51.488;5.462;2023-03-08T07:43:51;5.63;;;4.43;;
75429;SDS011;64127;51.488;5.462;2023-03-08T07:46:24;5.37;;;4.87;;
75429;SDS011;64127;51.488;5.462;2023-03-08T07:48:58;6.20;;;5.33;;
75429;SDS011;64127;51.488;5.462;2023-03-08T07:51:30;6.20;;;5.60;;
75429;SDS011;64127;51.488;5.462;2023-03-08T07:54:02;5.97;;;5.37;;
75429;SDS011;64127;51.488;5.462;2023-03-08T07:56:35;6.17;;;5.57;;
75429;SDS011;64127;51.488;5.462;2023-03-08T07:59:07;7.10;;;6.20;;
75429;SDS011;64127;51.488;5.462;2023-03-08T08:01:39;6.40;;;5.80;;
75429;SDS011;64127;51.488;5.462;2023-03-08T08:04:11;7.33;;;6.63;;
75429;SDS011;64127;51.488;5.462;2023-03-08T08:06:43;7.83;;;6.37;;
75429;SDS011;64127;51.488;5.462;2023-03-08T08:09:15;7.50;;;6.80;;
75429;SDS011;64127;51.488;5.462;2023-03-08T08:11:48;7.23;;;6.53;;
75429;SDS011;64127;51.488;5.462;2023-03-08T08:14:20;8.20;;;7.40;;
75429;SDS011;64127;51.488;5.462;2023-03-08T08:16:52;7.23;;;6.53;;
75429;SDS011;64127;51.488;5.462;2023-03-08T08:19:24;7.67;;;6.87;;
75429;SDS011;64127;51.488;5.462;2023-03-08T08:21:56;6.97;;;6.37;;
75429;SDS011;64127;51.488;5.462;2023-03-08T08:24:28;7.53;;;6.83;;
75429;SDS011;64127;51.488;5.462;2023-03-08T08:27:01;7.97;;;7.27;;
75429;SDS011;64127;51.488;5.462;2023-03-08T08:29:33;7.33;;;6.70;;
75429;SDS011;64127;51.488;5.462;2023-03-08T08:32:07;7.47;;;6.77;;
75429;SDS011;64127;51.488;5.462;2023-03-08T08:34:39;7.73;;;6.83;;
75429;SDS011;64127;51.488;5.462;2023-03-08T08:37:11;7.60;;;6.90;;
75429;SDS011;64127;51.488;5.462;2023-03-08T08:39:43;7.67;;;6.90;;
75429;SDS011;64127;51.488;5.462;2023-03-08T08:42:15;8.40;;;7.60;;
75429;SDS011;64127;51.488;5.462;2023-03-08T08:44:47;7.70;;;7.00;;
75429;SDS011;64127;51.488;5.462;2023-03-08T08:47:19;8.03;;;7.23;;
75429;SDS011;64127;51.488;5.462;2023-03-08T08:49:50;7.23;;;6.63;;
75429;SDS011;64127;51.488;5.462;2023-03-08T08:52:23;7.63;;;6.93;;
75429;SDS011;64127;51.488;5.462;2023-03-08T08:54:55;7.23;;;6.53;;
75429;SDS011;64127;51.488;5.462;2023-03-08T08:57:28;8.27;;;7.47;;
75429;SDS011;64127;51.488;5.462;2023-03-08T09:00:00;6.73;;;6.13;;
75429;SDS011;64127;51.488;5.462;2023-03-08T09:02:32;7.30;;;6.60;;
75429;SDS011;64127;51.488;5.462;2023-03-08T09:05:04;7.00;;;6.30;;
75429;SDS011;64127;51.488;5.462;2023-03-08T09:07:36;6.73;;;6.10;;
75429;SDS011;64127;51.488;5.462;2023-03-08T09:10:09;7.07;;;6.47;;
75429;SDS011;64127;51.488;5.462;2023-03-08T09:12:42;7.47;;;6.87;;
75429;SDS011;64127;51.488;5.462;2023-03-08T09:15:14;8.40;;;7.60;;
75429;SDS011;64127;51.488;5.462;2023-03-08T09:17:46;8.90;;;8.10;;
75429;SDS011;64127;51.488;5.462;2023-03-08T09:20:19;9.07;;;8.27;;
75429;SDS011;64127;51.488;5.462;2023-03-08T09:22:53;10.10;;;9.10;;
75429;SDS011;64127;51.488;5.462;2023-03-08T09:25:25;9.90;;;9.00;;
75429;SDS011;64127;51.488;5.462;2023-03-08T09:27:57;10.27;;;9.27;;
75429;SDS011;64127;51.488;5.462;2023-03-08T09:30:29;10.27;;;9.27;;
75429;SDS011;64127;51.488;5.462;2023-03-08T09:33:03;9.83;;;8.93;;
75429;SDS011;64127;51.488;5.462;2023-03-08T09:35:35;10.40;;;9.40;;
75429;SDS011;64127;51.488;5.462;2023-03-08T09:38:07;10.67;;;9.57;;
75429;SDS011;64127;51.488;5.462;2023-03-08T09:40:44;11.47;;;10.37;;
75429;SDS011;64127;51.488;5.462;2023-03-08T09:46:52;10.63;;;9.53;;
75429;SDS011;64127;51.488;5.462;2023-03-08T09:49:34;10.67;;;9.57;;
75429;SDS011;64127;51.488;5.462;2023-03-08T09:52:10;10.67;;;9.63;;
75429;SDS011;64127;51.488;5.462;2023-03-08T09:54:58;10.17;;;9.17;;
75429;SDS011;64127;51.488;5.462;2023-03-08T09:57:34;10.60;;;9.60;;
75429;SDS011;64127;51.488;5.462;2023-03-08T10:00:18;9.83;;;8.83;;
75429;SDS011;64127;51.488;5.462;2023-03-08T10:06:19;8.53;;;7.73;;
75429;SDS011;64127;51.488;5.462;2023-03-08T10:09:02;8.83;;;8.03;;
75429;SDS011;64127;51.488;5.462;2023-03-08T10:12:13;8.10;;;7.33;;
75429;SDS011;64127;51.488;5.462;2023-03-08T10:15:07;7.70;;;7.00;;
75429;SDS011;64127;51.488;5.462;2023-03-08T10:17:48;7.03;;;6.43;;
75429;SDS011;64127;51.488;5.462;2023-03-08T10:20:36;6.97;;;6.37;;
75429;SDS011;64127;51.488;5.462;2023-03-08T10:23:13;8.83;;;7.57;;
75429;SDS011;64127;51.488;5.462;2023-03-08T10:25:51;8.57;;;7.77;;
75429;SDS011;64127;51.488;5.462;2023-03-08T10:28:23;10.03;;;9.13;;
75429;SDS011;64127;51.488;5.462;2023-03-08T10:30:59;10.70;;;9.70;;
75429;SDS011;64127;51.488;5.462;2023-03-08T10:33:35;10.53;;;9.63;;
75429;SDS011;64127;51.488;5.462;2023-03-08T10:36:08;11.23;;;10.23;;
75429;SDS011;64127;51.488;5.462;2023-03-08T10:38:57;11.17;;;10.07;;
75429;SDS011;64127;51.488;5.462;2023-03-08T10:41:41;11.30;;;10.30;;
75429;SDS011;64127;51.488;5.462;2023-03-08T10:50:04;11.67;;;10.57;;
75429;SDS011;64127;51.488;5.462;2023-03-08T10:52:37;11.50;;;10.40;;
75429;SDS011;64127;51.488;5.462;2023-03-08T10:55:14;12.73;;;11.53;;
75429;SDS011;64127;51.488;5.462;2023-03-08T10:58:00;11.53;;;10.53;;
75429;SDS011;64127;51.488;5.462;2023-03-08T11:00:36;11.77;;;10.67;;
75429;SDS011;64127;51.488;5.462;2023-03-08T11:03:14;11.27;;;10.27;;
75429;SDS011;64127;51.488;5.462;2023-03-08T11:05:58;11.30;;;10.30;;
75429;SDS011;64127;51.488;5.462;2023-03-08T11:08:53;10.90;;;9.90;;
75429;SDS011;64127;51.488;5.462;2023-03-08T11:11:38;11.17;;;10.07;;
75429;SDS011;64127;51.488;5.462;2023-03-08T11:14:12;9.83;;;8.93;;
75429;SDS011;64127;51.488;5.462;2023-03-08T11:28:57;9.07;;;8.27;;
75429;SDS011;64127;51.488;5.462;2023-03-08T11:38:05;8.60;;;7.80;;
75429;SDS011;64127;51.488;5.462;2023-03-08T11:43:55;8.33;;;7.53;;
75429;SDS011;64127;51.488;5.462;2023-03-08T11:52:21;7.93;;;7.23;;
75429;SDS011;64127;51.488;5.462;2023-03-08T12:01:18;8.33;;;7.63;;
75429;SDS011;64127;51.488;5.462;2023-03-08T12:03:57;8.03;;;7.27;;
75429;SDS011;64127;51.488;5.462;2023-03-08T12:06:40;8.00;;;7.30;;
75429;SDS011;64127;51.488;5.462;2023-03-08T12:09:20;7.73;;;7.03;;
75429;SDS011;64127;51.488;5.462;2023-03-08T12:21:20;7.30;;;6.70;;
75429;SDS011;64127;51.488;5.462;2023-03-08T12:27:17;6.20;;;5.70;;
75429;SDS011;64127;51.488;5.462;2023-03-08T12:30:00;6.73;;;6.10;;
75429;SDS011;64127;51.488;5.462;2023-03-08T12:32:40;6.30;;;5.80;;
75429;SDS011;64127;51.488;5.462;2023-03-08T12:35:25;6.67;;;6.07;;
75429;SDS011;64127;51.488;5.462;2023-03-08T12:40:46;7.03;;;6.47;;
75429;SDS011;64127;51.488;5.462;2023-03-08T12:54:05;8.30;;;7.60;;
75429;SDS011;64127;51.488;5.462;2023-03-08T12:56:53;8.37;;;7.67;;
75429;SDS011;64127;51.488;5.462;2023-03-08T12:59:35;9.60;;;8.60;;
75429;SDS011;64127;51.488;5.462;2023-03-08T13:19:16;11.27;;;10.20;;
75429;SDS011;64127;51.488;5.462;2023-03-08T13:27:43;11.87;;;10.77;;
75429;SDS011;64127;51.488;5.462;2023-03-08T13:30:35;11.33;;;10.33;;
75429;SDS011;64127;51.488;5.462;2023-03-08T13:33:24;11.93;;;10.83;;
75429;SDS011;64127;51.488;5.462;2023-03-08T13:38:35;12.00;;;10.90;;
75429;SDS011;64127;51.488;5.462;2023-03-08T13:41:08;12.53;;;11.30;;
75429;SDS011;64127;51.488;5.462;2023-03-08T13:43:40;12.43;;;11.10;;
75429;SDS011;64127;51.488;5.462;2023-03-08T13:46:12;12.73;;;11.53;;
75429;SDS011;64127;51.488;5.462;2023-03-08T13:48:48;12.10;;;11.00;;
75429;SDS011;64127;51.488;5.462;2023-03-08T13:51:20;12.40;;;11.20;;
75429;SDS011;64127;51.488;5.462;2023-03-08T13:53:58;13.70;;;12.30;;
75429;SDS011;64127;51.488;5.462;2023-03-08T13:56:31;12.63;;;11.33;;
75429;SDS011;64127;51.488;5.462;2023-03-08T13:59:03;12.50;;;11.30;;
75429;SDS011;64127;51.488;5.462;2023-03-08T14:01:35;13.20;;;11.90;;
75429;SDS011;64127;51.488;5.462;2023-03-08T14:04:21;12.40;;;11.10;;
75429;SDS011;64127;51.488;5.462;2023-03-08T14:06:57;12.97;;;11.77;;
75429;SDS011;64127;51.488;5.462;2023-03-08T14:09:31;12.27;;;11.07;;
75429;SDS011;64127;51.488;5.462;2023-03-08T14:12:04;11.83;;;10.83;;
75429;SDS011;64127;51.488;5.462;2023-03-08T14:14:38;12.70;;;11.50;;
75429;SDS011;64127;51.488;5.462;2023-03-08T14:17:25;11.97;;;10.83;;
75429;SDS011;64127;51.488;5.462;2023-03-08T14:20:02;12.33;;;11.20;;
75429;SDS011;64127;51.488;5.462;2023-03-08T14:22:53;12.70;;;11.50;;
75429;SDS011;64127;51.488;5.462;2023-03-08T14:25:29;13.20;;;11.90;;
75429;SDS011;64127;51.488;5.462;2023-03-08T14:28:02;13.13;;;11.73;;
75429;SDS011;64127;51.488;5.462;2023-03-08T14:30:34;12.80;;;11.47;;
75429;SDS011;64127;51.488;5.462;2023-03-08T14:33:19;12.23;;;11.03;;
75429;SDS011;64127;51.488;5.462;2023-03-08T14:36:03;12.93;;;11.57;;
75429;SDS011;64127;51.488;5.462;2023-03-08T14:38:36;12.43;;;11.23;;
75429;SDS011;64127;51.488;5.462;2023-03-08T14:41:08;12.63;;;11.43;;
75429;SDS011;64127;51.488;5.462;2023-03-08T14:43:46;12.17;;;11.03;;
75429;SDS011;64127;51.488;5.462;2023-03-08T14:46:19;12.93;;;11.63;;
75429;SDS011;64127;51.488;5.462;2023-03-08T14:49:01;11.93;;;10.83;;
75429;SDS011;64127;51.488;5.462;2023-03-08T14:51:37;12.83;;;11.57;;
75429;SDS011;64127;51.488;5.462;2023-03-08T14:57:17;12.37;;;11.17;;
75429;SDS011;64127;51.488;5.462;2023-03-08T14:59:55;11.50;;;10.30;;
75429;SDS011;64127;51.488;5.462;2023-03-08T15:02:44;10.90;;;9.80;;
75429;SDS011;64127;51.488;5.462;2023-03-08T15:05:18;12.00;;;10.90;;
75429;SDS011;64127;51.488;5.462;2023-03-08T15:08:00;11.93;;;10.80;;
75429;SDS011;64127;51.488;5.462;2023-03-08T15:10:33;11.80;;;10.67;;
75429;SDS011;64127;51.488;5.462;2023-03-08T15:13:12;11.07;;;9.97;;
75429;SDS011;64127;51.488;5.462;2023-03-08T15:15:52;11.87;;;10.43;;
75429;SDS011;64127;51.488;5.462;2023-03-08T15:18:24;11.60;;;10.40;;
75429;SDS011;64127;51.488;5.462;2023-03-08T15:20:56;12.20;;;11.00;;
75429;SDS011;64127;51.488;5.462;2023-03-08T15:23:31;11.63;;;10.43;;
75429;SDS011;64127;51.488;5.462;2023-03-08T15:26:09;11.73;;;10.53;;
75429;SDS011;64127;51.488;5.462;2023-03-08T15:28:47;12.47;;;11.00;;
75429;SDS011;64127;51.488;5.462;2023-03-08T15:31:19;13.07;;;11.77;;
75429;SDS011;64127;51.488;5.462;2023-03-08T15:33:52;13.57;;;12.17;;
75429;SDS011;64127;51.488;5.462;2023-03-08T15:36:24;15.20;;;12.53;;
75429;SDS011;64127;51.488;5.462;2023-03-08T15:38:56;13.23;;;11.80;;
75429;SDS011;64127;51.488;5.462;2023-03-08T15:41:29;13.30;;;11.90;;
75429;SDS011;64127;51.488;5.462;2023-03-08T15:44:01;13.20;;;11.77;;
75429;SDS011;64127;51.488;5.462;2023-03-08T15:46:34;13.23;;;11.87;;
75429;SDS011;64127;51.488;5.462;2023-03-08T15:49:06;13.63;;;12.07;;
75429;SDS011;64127;51.488;5.462;2023-03-08T15:51:38;13.07;;;11.67;;
75429;SDS011;64127;51.488;5.462;2023-03-08T15:54:10;13.07;;;11.67;;
75429;SDS011;64127;51.488;5.462;2023-03-08T15:56:42;13.57;;;11.97;;
75429;SDS011;64127;51.488;5.462;2023-03-08T15:59:14;13.30;;;11.80;;
75429;SDS011;64127;51.488;5.462;2023-03-08T16:01:46;13.20;;;11.50;;
75429;SDS011;64127;51.488;5.462;2023-03-08T16:04:18;13.73;;;11.53;;
75429;SDS011;64127;51.488;5.462;2023-03-08T16:06:51;13.10;;;11.70;;
75429;SDS011;64127;51.488;5.462;2023-03-08T16:09:23;13.90;;;12.07;;
75429;SDS011;64127;51.488;5.462;2023-03-08T16:11:55;14.10;;;12.60;;
75429;SDS011;64127;51.488;5.462;2023-03-08T16:14:27;12.93;;;11.53;;
75429;SDS011;64127;51.488;5.462;2023-03-08T16:16:59;13.93;;;11.47;;
75429;SDS011;64127;51.488;5.462;2023-03-08T16:19:34;13.20;;;11.77;;
75429;SDS011;64127;51.488;5.462;2023-03-08T16:22:06;13.70;;;12.10;;
75429;SDS011;64127;51.488;5.462;2023-03-08T16:24:39;13.30;;;11.90;;
75429;SDS011;64127;51.488;5.462;2023-03-08T16:27:11;14.73;;;12.00;;
75429;SDS011;64127;51.488;5.462;2023-03-08T16:29:43;13.80;;;11.37;;
75429;SDS011;64127;51.488;5.462;2023-03-08T16:32:15;12.43;;;11.07;;
75429;SDS011;64127;51.488;5.462;2023-03-08T16:34:48;12.17;;;10.87;;
75429;SDS011;64127;51.488;5.462;2023-03-08T16:37:23;12.17;;;10.80;;
75429;SDS011;64127;51.488;5.462;2023-03-08T16:39:57;12.70;;;11.40;;
75429;SDS011;64127;51.488;5.462;2023-03-08T16:42:32;12.90;;;11.53;;
75429;SDS011;64127;51.488;5.462;2023-03-08T16:45:04;13.27;;;11.33;;
75429;SDS011;64127;51.488;5.462;2023-03-08T16:47:37;13.57;;;11.13;;
75429;SDS011;64127;51.488;5.462;2023-03-08T16:50:12;12.83;;;11.47;;
75429;SDS011;64127;51.488;5.462;2023-03-08T16:52:44;12.43;;;11.17;;
75429;SDS011;64127;51.488;5.462;2023-03-08T16:55:16;12.53;;;11.23;;